createdAt,value
2019-03-09T09:39:53.487Z,26.79
2019-03-09T09:42:27.409Z,27.47
2019-03-09T09:45:01.259Z,28.00
2019-03-09T09:47:35.448Z,28.77
2019-03-09T09:50:10.505Z,28.59
2019-03-09T09:52:44.892Z,27.69
2019-03-09T09:55:19.570Z,27.54
2019-03-09T09:57:54.054Z,26.91
2019-03-09T10:00:36.935Z,25.95
2019-03-09T10:03:11.110Z,25.08
2019-03-09T10:05:45.386Z,24.96
2019-03-09T10:08:19.468Z,25.19
2019-03-09T10:10:55.918Z,25.45
2019-03-09T10:13:29.832Z,25.05
2019-03-09T10:16:04.040Z,24.74
2019-03-09T10:18:38.583Z,25.02
2019-03-09T10:21:10.375Z,24.37
2019-03-09T10:23:42.708Z,24.15
2019-03-09T10:26:14.827Z,24.05
2019-03-09T10:28:47.608Z,23.15
2019-03-09T10:31:20.474Z,23.55
2019-03-09T10:33:52.649Z,22.72
2019-03-09T10:36:24.758Z,22.27
2019-03-09T10:38:56.729Z,22.50
2019-03-09T10:41:28.760Z,22.79
2019-03-09T10:44:02.677Z,23.61
2019-03-09T10:46:37.440Z,24.17
2019-03-09T10:49:10.932Z,25.09
2019-03-09T10:51:44.745Z,25.62
2019-03-09T10:54:18.613Z,26.10
2019-03-09T10:56:52.539Z,25.80
2019-03-09T10:59:26.701Z,25.16
2019-03-09T11:02:10.243Z,23.71
2019-03-09T11:04:43.635Z,22.86
2019-03-09T11:07:17.828Z,23.67
2019-03-09T11:09:51.512Z,22.64
2019-03-09T11:12:26.205Z,21.63
2019-03-09T11:15:01.460Z,22.29
2019-03-09T11:17:37.260Z,21.83
2019-03-09T11:20:12.331Z,22.18
2019-03-09T11:22:46.349Z,23.19
2019-03-09T11:25:20.477Z,23.84
2019-03-09T11:27:54.459Z,23.82
2019-03-09T11:30:28.619Z,23.76
2019-03-09T11:33:02.834Z,23.83
2019-03-09T11:35:34.931Z,23.74
2019-03-09T11:38:06.766Z,23.41
2019-03-09T11:40:57.270Z,23.31
2019-03-09T11:43:40.606Z,23.52
2019-03-09T11:46:26.862Z,22.77
2019-03-09T11:49:10.972Z,23.04
2019-03-09T11:51:45.653Z,24.33
2019-03-09T11:54:31.683Z,24.81
2019-03-09T11:57:10.501Z,24.69
2019-03-09T11:59:42.308Z,25.45
2019-03-09T12:02:14.390Z,26.13
2019-03-09T12:04:47.356Z,25.83
2019-03-09T12:07:19.456Z,25.75
2019-03-09T12:09:51.384Z,25.64
2019-03-09T12:12:23.275Z,26.38
2019-03-09T12:14:55.328Z,26.66
2019-03-09T12:31:57.923Z,27.98
2019-03-09T12:34:44.420Z,27.80
2019-03-09T12:37:29.923Z,27.71
2019-03-09T12:40:10.179Z,26.99
2019-03-09T12:42:44.240Z,27.33
2019-03-09T12:45:18.592Z,27.12
2019-03-09T12:47:52.949Z,26.87
2019-03-09T12:50:27.175Z,26.15
2019-03-09T12:53:01.483Z,27.23
2019-03-09T12:55:36.419Z,27.01
2019-03-09T12:58:09.833Z,26.73
2019-03-09T13:00:43.797Z,26.66
2019-03-09T13:03:18.246Z,27.16
2019-03-09T13:05:52.297Z,27.43
2019-03-09T13:08:26.401Z,27.79
2019-03-09T13:11:00.606Z,27.49
2019-03-09T13:13:34.523Z,27.41
2019-03-09T13:16:08.753Z,26.36
2019-03-09T13:18:42.701Z,26.22
2019-03-09T13:21:18.238Z,25.00
2019-03-09T13:23:52.184Z,24.73
2019-03-09T13:26:27.234Z,24.49
2019-03-09T13:29:03.397Z,25.13
2019-03-09T13:31:37.847Z,24.53
2019-03-09T13:34:11.801Z,22.84
2019-03-09T13:36:45.693Z,22.30
2019-03-09T13:39:20.456Z,22.10
2019-03-09T13:42:05.340Z,21.69
2019-03-09T13:44:51.014Z,22.07
2019-03-09T13:47:35.343Z,21.77
2019-03-09T13:50:11.357Z,21.43
2019-03-09T13:52:57.343Z,22.12
2019-03-09T13:55:41.916Z,21.93
2019-03-09T13:58:28.495Z,21.53
2019-03-09T14:01:09.521Z,21.07
2019-03-09T14:03:43.286Z,22.43
2019-03-09T14:06:17.704Z,21.95
2019-03-09T14:08:51.832Z,22.31
2019-03-09T14:11:25.926Z,22.72
2019-03-09T14:13:59.683Z,23.36
2019-03-09T14:16:33.843Z,23.56
2019-03-09T14:19:09.444Z,23.81
2019-03-09T14:21:43.391Z,23.47
2019-03-09T14:24:17.481Z,22.95
2019-03-09T14:26:51.652Z,23.22
2019-03-09T14:29:25.856Z,23.65
2019-03-09T14:32:06.255Z,23.97
2019-03-09T14:34:40.316Z,24.01
2019-03-09T14:37:15.317Z,24.17
2019-03-09T14:39:49.203Z,23.75
2019-03-09T14:42:35.235Z,23.93
2019-03-09T14:45:21.331Z,24.50
2019-03-09T14:48:06.206Z,24.56
2019-03-09T14:50:48.779Z,24.43
2019-03-09T14:53:22.669Z,23.96
2019-03-09T14:56:00.327Z,23.67
2019-03-09T14:58:34.858Z,23.57
2019-03-09T15:01:09.524Z,23.14
2019-03-09T15:03:43.999Z,22.91
2019-03-09T15:18:34.675Z,22.27
2019-03-09T15:21:09.985Z,22.86
2019-03-09T15:23:44.314Z,23.23
2019-03-09T15:26:21.746Z,23.59
2019-03-09T15:28:55.723Z,23.97
2019-03-09T15:31:30.367Z,23.99
2019-03-09T15:34:04.540Z,24.11
2019-03-09T15:36:38.656Z,24.65
2019-03-09T15:39:13.179Z,24.88
2019-03-09T15:41:48.356Z,25.08
2019-03-09T15:44:22.440Z,25.30
2019-03-09T15:46:56.338Z,25.58
2019-03-09T15:49:30.443Z,25.66
2019-03-09T15:52:04.953Z,26.01
2019-03-09T15:54:38.879Z,26.22
2019-03-09T15:57:16.562Z,26.33
2019-03-09T15:59:51.033Z,26.54
2019-03-09T16:02:25.273Z,26.79
